createdAt,value
2019-02-19T00:00:56.482Z,5.02
2019-02-19T00:03:38.597Z,4.96
2019-02-19T00:06:15.897Z,4.84
2019-02-19T00:08:51.636Z,4.89
2019-02-19T00:11:39.618Z,4.86
2019-02-19T00:14:15.376Z,4.85
2019-02-19T00:16:50.321Z,4.84
2019-02-19T00:19:25.268Z,4.84
2019-02-19T00:22:01.070Z,4.85
2019-02-19T00:24:35.837Z,4.92
2019-02-19T00:27:10.751Z,4.92
2019-02-19T00:29:45.876Z,5.01
2019-02-19T00:32:21.688Z,5.06
2019-02-19T00:34:58.984Z,5.07
2019-02-19T00:37:34.746Z,5.11
2019-02-19T00:40:09.671Z,5.08
2019-02-19T00:42:53.629Z,5.12
2019-02-19T00:45:28.455Z,5.05
2019-02-19T00:48:04.200Z,5.15
2019-02-19T00:50:39.976Z,5.23
2019-02-19T00:53:21.958Z,5.12
2019-02-19T00:55:57.692Z,5.06
2019-02-19T00:58:33.458Z,5.04
2019-02-19T01:01:08.344Z,5.04
2019-02-19T01:03:43.243Z,5.16
2019-02-19T01:06:18.061Z,5.40
2019-02-19T01:08:52.970Z,5.48
2019-02-19T01:11:27.846Z,5.48
2019-02-19T01:14:02.774Z,5.65
2019-02-19T01:16:37.656Z,5.71
2019-02-19T01:19:12.568Z,5.93
2019-02-19T01:21:47.368Z,6.14
2019-02-19T01:24:22.511Z,6.22
2019-02-19T01:26:57.414Z,6.27
2019-02-19T01:29:32.538Z,6.62
2019-02-19T01:32:07.562Z,6.54
2019-02-19T01:34:43.347Z,6.63
2019-02-19T01:37:18.268Z,6.70
2019-02-19T01:39:53.182Z,6.75
2019-02-19T01:42:28.114Z,6.86
2019-02-19T01:45:03.060Z,6.89
2019-02-19T01:47:37.958Z,6.91
2019-02-19T01:50:12.860Z,6.87
2019-02-19T01:52:48.618Z,7.02
2019-02-19T01:55:25.178Z,7.05
2019-02-19T01:58:00.198Z,7.13
2019-02-19T02:00:35.556Z,7.21
2019-02-19T02:03:10.320Z,7.29
2019-02-19T02:05:45.405Z,7.39
2019-02-19T02:08:21.110Z,7.44
2019-02-19T02:10:56.008Z,7.52
2019-02-19T02:13:30.998Z,7.60
2019-02-19T02:16:06.744Z,7.61
2019-02-19T02:18:41.579Z,7.58
2019-02-19T02:21:16.475Z,7.86
2019-02-19T02:23:52.196Z,7.79
2019-02-19T02:26:27.126Z,7.77
2019-02-19T02:29:02.001Z,7.72
2019-02-19T02:31:37.752Z,7.91
2019-02-19T02:34:13.501Z,7.75
2019-02-19T02:36:48.786Z,7.72
2019-02-19T02:39:23.682Z,7.89
2019-02-19T02:41:58.589Z,7.87
2019-02-19T02:44:36.126Z,7.87
2019-02-19T02:47:11.064Z,7.85
2019-02-19T02:49:46.014Z,7.84
2019-02-19T02:52:20.936Z,7.82
2019-02-19T02:54:55.860Z,7.78
2019-02-19T02:57:36.328Z,7.67
2019-02-19T03:00:13.589Z,7.67
2019-02-19T03:02:48.577Z,7.67
2019-02-19T03:05:25.315Z,7.59
2019-02-19T03:08:03.563Z,7.57
2019-02-19T03:10:40.970Z,7.58
2019-02-19T03:13:17.806Z,7.51
2019-02-19T03:16:01.918Z,7.54
2019-02-19T03:18:42.459Z,7.49
2019-02-19T03:21:17.340Z,7.51
2019-02-19T03:23:52.567Z,7.43
2019-02-19T03:26:27.633Z,7.34
2019-02-19T03:29:02.612Z,7.18
2019-02-19T03:31:37.548Z,7.34
2019-02-19T03:34:12.489Z,7.42
2019-02-19T03:36:47.439Z,7.36
2019-02-19T03:39:22.363Z,7.29
2019-02-19T03:41:57.230Z,7.41
2019-02-19T03:44:32.119Z,7.47
2019-02-19T03:47:08.091Z,7.36
2019-02-19T03:49:43.190Z,7.37
2019-02-19T03:52:18.064Z,7.27
2019-02-19T03:54:53.108Z,7.25
2019-02-19T03:57:28.018Z,7.24
2019-02-19T04:00:04.030Z,7.19
2019-02-19T04:02:38.936Z,7.18
2019-02-19T04:05:16.315Z,7.04
2019-02-19T04:07:52.032Z,7.10
2019-02-19T04:10:27.802Z,7.14
2019-02-19T04:13:03.861Z,7.08
2019-02-19T04:15:56.878Z,7.00
2019-02-19T04:18:35.247Z,6.99
2019-02-19T04:21:20.358Z,6.99
2019-02-19T04:23:57.659Z,7.04
2019-02-19T04:26:49.736Z,6.95
2019-02-19T04:29:27.041Z,6.96
2019-02-19T04:32:02.846Z,7.07
2019-02-19T04:34:40.183Z,7.08
2019-02-19T04:37:15.969Z,6.98
2019-02-19T04:39:51.694Z,7.02
2019-02-19T04:42:28.038Z,7.13
2019-02-19T04:45:03.859Z,7.10
2019-02-19T04:47:39.653Z,7.14
2019-02-19T04:50:14.763Z,7.14
2019-02-19T04:52:50.682Z,7.24
2019-02-19T04:55:25.534Z,7.21
2019-02-19T04:58:01.427Z,7.13
2019-02-19T05:00:36.303Z,7.13
2019-02-19T05:03:12.084Z,7.18
2019-02-19T05:05:47.909Z,7.28
2019-02-19T05:08:23.676Z,7.25
2019-02-19T05:10:59.381Z,7.26
2019-02-19T05:13:35.137Z,7.27
2019-02-19T05:16:11.071Z,7.28
2019-02-19T05:19:04.175Z,7.29
2019-02-19T05:21:39.103Z,7.34
2019-02-19T05:24:14.906Z,7.30
2019-02-19T05:26:50.659Z,7.34
2019-02-19T05:29:33.711Z,7.32
2019-02-19T05:32:09.491Z,7.32
2019-02-19T05:34:45.316Z,7.28
2019-02-19T05:37:21.152Z,7.32
2019-02-19T05:39:56.170Z,7.43
2019-02-19T05:42:54.787Z,7.29
2019-02-19T05:45:30.581Z,7.34
2019-02-19T05:48:06.288Z,7.34
2019-02-19T05:50:42.112Z,7.25
2019-02-19T05:53:45.078Z,7.32
2019-02-19T05:56:45.272Z,7.28
2019-02-19T05:59:20.146Z,7.19
2019-02-19T06:01:56.301Z,7.23
2019-02-19T06:04:38.597Z,7.24
2019-02-19T06:07:14.364Z,7.25
2019-02-19T06:09:51.140Z,7.29
2019-02-19T06:12:28.152Z,7.26
2019-02-19T06:15:03.997Z,7.16
2019-02-19T06:17:39.755Z,7.18
2019-02-19T06:20:15.581Z,7.19
2019-02-19T06:22:52.283Z,7.09
2019-02-19T06:25:30.167Z,7.20
2019-02-19T06:28:06.040Z,7.16
2019-02-19T06:31:00.232Z,7.13
2019-02-19T06:33:37.051Z,7.18
2019-02-19T06:36:16.049Z,7.12
2019-02-19T06:39:09.337Z,7.09
2019-02-19T06:41:46.707Z,7.12
2019-02-19T06:44:22.433Z,6.98
2019-02-19T06:50:55.281Z,6.89
2019-02-19T06:53:30.209Z,6.85
2019-02-19T06:56:11.807Z,6.84
2019-02-19T07:03:27.559Z,6.97
2019-02-19T07:06:04.716Z,6.91
2019-02-19T07:08:46.223Z,6.98
2019-02-19T07:11:21.961Z,7.02
2019-02-19T07:13:57.743Z,7.15
2019-02-19T07:16:33.919Z,7.15
2019-02-19T07:19:10.049Z,6.98
2019-02-19T07:21:45.291Z,7.07
2019-02-19T07:24:20.441Z,7.03
2019-02-19T07:26:55.501Z,7.02
2019-02-19T07:29:31.771Z,7.06
2019-02-19T07:32:06.744Z,7.06
2019-02-19T07:35:30.555Z,6.97
2019-02-19T07:38:07.090Z,6.91
2019-02-19T07:40:45.638Z,6.83
2019-02-19T07:43:21.812Z,6.90
2019-02-19T07:45:57.646Z,6.93
2019-02-19T07:48:34.397Z,6.95
2019-02-19T07:51:10.344Z,7.01
2019-02-19T07:53:45.206Z,7.06
2019-02-19T07:56:20.691Z,7.03
2019-02-19T07:58:55.761Z,7.06
2019-02-19T08:01:31.611Z,7.14
2019-02-19T08:04:06.497Z,7.17
2019-02-19T08:06:42.488Z,7.37
2019-02-19T08:09:23.637Z,7.45
2019-02-19T08:12:04.820Z,7.39
2019-02-19T08:14:42.539Z,7.49
2019-02-19T08:17:17.631Z,7.43
2019-02-19T08:20:15.912Z,7.51
2019-02-19T08:22:48.232Z,7.42
2019-02-19T08:25:25.225Z,7.47
2019-02-19T08:28:01.565Z,7.51
2019-02-19T08:30:36.869Z,7.51
2019-02-19T08:33:13.634Z,7.67
2019-02-19T08:35:50.061Z,7.54
2019-02-19T08:38:27.387Z,7.66
2019-02-19T08:41:02.803Z,7.71
2019-02-19T08:43:37.814Z,7.81
2019-02-19T08:46:13.577Z,7.78
2019-02-19T08:52:49.553Z,7.77
2019-02-19T08:55:25.297Z,7.87
2019-02-19T09:01:31.291Z,7.87
2019-02-19T09:04:12.837Z,7.98
2019-02-19T09:06:48.029Z,8.12
2019-02-19T09:09:24.171Z,8.08
2019-02-19T09:11:59.471Z,8.00
2019-02-19T09:14:35.600Z,7.95
2019-02-19T09:17:12.313Z,7.94
2019-02-19T09:19:56.248Z,7.98
2019-02-19T09:22:36.937Z,7.84
2019-02-19T09:25:11.857Z,7.97
2019-02-19T09:27:47.773Z,8.09
2019-02-19T09:30:22.917Z,8.09
2019-02-19T09:33:06.731Z,8.20
2019-02-19T09:36:09.147Z,8.14
2019-02-19T09:38:44.588Z,7.99
2019-02-19T09:41:19.467Z,8.19
2019-02-19T09:43:57.355Z,8.30
2019-02-19T09:46:35.063Z,8.29
2019-02-19T09:49:10.605Z,8.22
2019-02-19T09:51:50.506Z,8.39
2019-02-19T09:54:25.538Z,8.41
2019-02-19T09:57:01.764Z,8.53
2019-02-19T09:59:36.799Z,8.44
2019-02-19T10:02:12.538Z,8.58
2019-02-19T10:04:47.824Z,8.51
2019-02-19T10:07:24.373Z,8.56
2019-02-19T10:09:59.759Z,8.49
2019-02-19T10:12:35.087Z,8.63
2019-02-19T10:15:22.115Z,8.67
2019-02-19T10:17:59.517Z,8.64
2019-02-19T10:20:38.500Z,8.62
2019-02-19T10:23:13.839Z,8.61
2019-02-19T10:25:49.441Z,8.51
2019-02-19T10:28:24.460Z,8.40
2019-02-19T10:30:59.354Z,8.40
2019-02-19T10:33:36.328Z,8.53
2019-02-19T10:36:11.496Z,8.62
2019-02-19T10:42:12.845Z,8.67
2019-02-19T10:44:48.244Z,8.98
2019-02-19T10:47:23.306Z,8.93
2019-02-19T10:50:24.517Z,8.94
2019-02-19T10:53:00.698Z,8.76
2019-02-19T10:55:36.923Z,8.81
2019-02-19T10:58:22.503Z,8.89
2019-02-19T11:00:54.296Z,8.85
2019-02-19T11:03:30.226Z,9.04
2019-02-19T11:06:05.262Z,9.06
2019-02-19T11:08:40.193Z,9.10
2019-02-19T11:11:16.087Z,8.92
2019-02-19T11:13:51.287Z,8.89
2019-02-19T11:16:29.510Z,8.87
2019-02-19T11:19:04.946Z,8.92
2019-02-19T11:21:41.179Z,9.13
2019-02-19T11:24:16.351Z,9.05
2019-02-19T11:26:51.494Z,9.23
2019-02-19T11:29:28.026Z,9.06
2019-02-19T11:32:04.349Z,9.16
2019-02-19T11:34:40.459Z,9.07
2019-02-19T11:37:15.702Z,9.19
2019-02-19T11:39:50.644Z,9.21
2019-02-19T11:42:28.514Z,9.05
2019-02-19T11:45:04.755Z,8.87
2019-02-19T11:47:39.774Z,8.91
2019-02-19T11:50:21.651Z,8.87
2019-02-19T11:52:59.010Z,8.88
2019-02-19T11:55:34.893Z,8.88
2019-02-19T11:58:10.122Z,9.15
2019-02-19T12:00:45.598Z,9.21
2019-02-19T12:03:20.576Z,9.27
2019-02-19T12:05:56.319Z,9.45
2019-02-19T12:08:38.846Z,9.72
2019-02-19T12:11:08.847Z,9.58
2019-02-19T12:13:44.624Z,9.39
2019-02-19T12:16:21.728Z,9.33
2019-02-19T12:18:57.194Z,9.18
2019-02-19T12:21:32.946Z,9.21
2019-02-19T12:24:10.484Z,9.23
2019-02-19T12:26:45.634Z,9.09
2019-02-19T12:29:30.912Z,9.36
2019-02-19T12:32:05.908Z,9.48
2019-02-19T12:34:40.884Z,10.11
2019-02-19T12:37:15.778Z,10.41
2019-02-19T12:39:51.616Z,10.07
2019-02-19T12:42:27.242Z,9.72
2019-02-19T12:45:02.756Z,9.57
2019-02-19T12:47:38.632Z,9.46
2019-02-19T12:50:14.756Z,9.70
2019-02-19T12:52:50.161Z,9.84
2019-02-19T12:55:26.110Z,10.02
2019-02-19T12:58:01.051Z,9.89
2019-02-19T13:00:36.570Z,9.94
2019-02-19T13:03:11.638Z,9.86
2019-02-19T13:05:46.521Z,9.97
2019-02-19T13:08:22.196Z,9.73
2019-02-19T13:10:57.134Z,9.86
2019-02-19T13:13:31.977Z,9.60
2019-02-19T13:16:07.952Z,9.50
2019-02-19T13:18:43.812Z,9.49
2019-02-19T13:21:18.714Z,9.52
2019-02-19T13:23:54.434Z,9.51
2019-02-19T13:26:30.294Z,9.32
2019-02-19T13:29:05.185Z,9.39
2019-02-19T13:31:41.656Z,9.49
2019-02-19T13:34:17.377Z,9.50
2019-02-19T13:36:53.164Z,9.58
2019-02-19T13:39:28.098Z,9.36
2019-02-19T13:42:04.566Z,9.11
2019-02-19T13:44:40.298Z,8.93
2019-02-19T13:47:51.244Z,8.76
2019-02-19T13:50:27.016Z,8.61
2019-02-19T13:53:15.706Z,8.46
2019-02-19T13:55:53.327Z,8.50
2019-02-19T13:58:28.360Z,8.54
2019-02-19T14:01:10.718Z,8.62
2019-02-19T14:03:45.736Z,8.77
2019-02-19T14:06:21.514Z,8.74
2019-02-19T14:08:56.435Z,8.65
2019-02-19T14:11:31.504Z,8.58
2019-02-19T14:14:23.926Z,8.58
2019-02-19T14:17:02.922Z,8.53
2019-02-19T14:19:41.945Z,8.51
2019-02-19T14:22:30.246Z,8.57
2019-02-19T14:25:24.500Z,8.56
2019-02-19T14:31:27.978Z,8.52
2019-02-19T14:35:15.546Z,8.53
2019-02-19T14:38:24.316Z,8.50
2019-02-19T14:41:19.124Z,8.62
2019-02-19T14:48:19.548Z,8.78
2019-02-19T14:51:13.384Z,8.82
2019-02-19T14:54:03.608Z,8.88
2019-02-19T14:56:58.170Z,8.91
2019-02-19T14:59:52.794Z,8.87
2019-02-19T15:02:53.039Z,8.83
2019-02-19T15:05:46.774Z,8.77
2019-02-19T15:08:29.582Z,8.79
2019-02-19T15:11:29.015Z,8.79
2019-02-19T15:18:02.480Z,8.65
2019-02-19T15:21:00.687Z,8.52
2019-02-19T15:23:49.975Z,8.49
2019-02-19T15:30:09.120Z,8.52
2019-02-19T15:33:00.406Z,8.45
2019-02-19T15:42:24.636Z,8.42
2019-02-19T15:45:30.819Z,8.40
2019-02-19T15:48:44.152Z,8.39
2019-02-19T15:51:32.533Z,8.39
2019-02-19T15:54:17.866Z,8.41
2019-02-19T15:57:11.717Z,8.40
2019-02-19T16:00:09.260Z,8.35
2019-02-19T16:03:15.704Z,8.39
2019-02-19T16:06:09.395Z,8.37
2019-02-19T16:09:03.296Z,8.35
2019-02-19T16:11:59.409Z,8.35
2019-02-19T16:14:41.234Z,8.24
2019-02-19T16:17:33.126Z,8.24
2019-02-19T16:20:33.782Z,8.29
2019-02-19T16:23:32.447Z,8.32
2019-02-19T16:26:18.804Z,8.26
2019-02-19T16:29:11.664Z,8.23
2019-02-19T16:32:11.899Z,8.21
2019-02-19T16:34:52.011Z,8.23
2019-02-19T16:37:38.530Z,8.22
2019-02-19T16:40:36.226Z,8.25
2019-02-19T16:43:42.376Z,8.22
2019-02-19T16:46:34.768Z,8.25
2019-02-19T16:49:25.629Z,8.28
2019-02-19T16:52:10.313Z,8.34
2019-02-19T16:54:54.122Z,8.41
2019-02-19T16:57:52.228Z,8.34
2019-02-19T17:00:41.036Z,8.26
2019-02-19T17:03:35.849Z,8.35
2019-02-19T17:06:35.726Z,8.21
2019-02-19T17:09:39.595Z,8.23
2019-02-19T17:12:38.826Z,8.24
2019-02-19T17:15:33.219Z,8.14
2019-02-19T17:19:27.888Z,8.24
2019-02-19T17:22:22.504Z,8.21
2019-02-19T17:25:28.756Z,8.14
2019-02-19T17:28:34.533Z,8.24
2019-02-19T17:31:32.118Z,8.27
2019-02-19T17:38:30.228Z,8.22
2019-02-19T17:41:27.603Z,8.25
2019-02-19T17:44:20.384Z,8.17
2019-02-19T17:47:14.477Z,8.13
2019-02-19T17:50:08.515Z,8.18
2019-02-19T17:53:04.492Z,8.20
2019-02-19T17:55:57.777Z,8.15
2019-02-19T17:58:58.439Z,8.15
2019-02-19T18:01:56.149Z,8.19
2019-02-19T18:07:50.292Z,8.19
2019-02-19T18:10:40.009Z,8.26
2019-02-19T18:13:31.506Z,8.23
2019-02-19T18:16:19.274Z,8.13
2019-02-19T18:18:54.316Z,8.22
2019-02-19T18:21:48.945Z,8.18
2019-02-19T18:28:05.504Z,8.12
2019-02-19T18:30:40.403Z,8.09
2019-02-19T18:33:15.321Z,8.11
2019-02-19T18:35:50.321Z,8.15
2019-02-19T18:38:25.220Z,8.08
2019-02-19T18:41:00.159Z,8.07
2019-02-19T18:43:36.020Z,7.98
2019-02-19T18:46:11.869Z,8.07
2019-02-19T18:48:47.741Z,8.08
2019-02-19T18:51:22.679Z,8.01
2019-02-19T18:53:59.756Z,7.98
2019-02-19T18:56:34.816Z,8.02
2019-02-19T18:59:09.696Z,8.04
2019-02-19T19:01:44.759Z,8.02
2019-02-19T19:04:19.647Z,7.98
2019-02-19T19:06:54.699Z,7.91
2019-02-19T19:09:32.741Z,7.95
2019-02-19T19:12:07.729Z,8.00
2019-02-19T19:14:43.529Z,7.92
2019-02-19T19:17:19.315Z,8.01
2019-02-19T19:19:54.296Z,8.07
2019-02-19T19:22:29.308Z,8.08
2019-02-19T19:25:05.143Z,7.91
2019-02-19T19:27:40.997Z,7.92
2019-02-19T19:30:15.969Z,7.97
2019-02-19T19:32:51.796Z,7.99
2019-02-19T19:35:27.585Z,8.00
2019-02-19T19:38:02.510Z,7.95
2019-02-19T19:45:06.704Z,7.87
2019-02-19T19:47:41.628Z,7.88
2019-02-19T19:50:18.117Z,7.86
2019-02-19T19:52:53.913Z,7.71
2019-02-19T19:55:29.735Z,7.69
2019-02-19T19:58:06.670Z,7.82
2019-02-19T20:00:41.623Z,7.69
2019-02-19T20:03:18.493Z,7.69
2019-02-19T20:05:53.584Z,7.62
2019-02-19T20:08:28.583Z,7.71
2019-02-19T20:11:10.155Z,7.69
2019-02-19T20:13:45.883Z,7.73
2019-02-19T20:16:21.704Z,7.61
2019-02-19T20:18:56.616Z,7.67
2019-02-19T20:21:32.348Z,7.70
2019-02-19T20:24:10.401Z,7.77
2019-02-19T20:26:45.315Z,7.78
2019-02-19T20:29:20.349Z,7.71
2019-02-19T20:31:55.309Z,7.71
2019-02-19T20:34:31.049Z,7.68
2019-02-19T20:37:06.017Z,7.70
2019-02-19T20:39:41.002Z,7.77
2019-02-19T20:42:16.822Z,7.83
2019-02-19T20:44:54.493Z,7.72
2019-02-19T20:47:30.239Z,7.67
2019-02-19T20:50:05.609Z,7.66
2019-02-19T20:52:40.652Z,7.74
2019-02-19T20:55:15.653Z,7.71
2019-02-19T20:57:51.462Z,7.69
2019-02-19T21:00:27.276Z,7.78
2019-02-19T21:03:23.257Z,7.82
2019-02-19T21:05:59.134Z,7.69
2019-02-19T21:08:34.283Z,7.76
2019-02-19T21:11:09.211Z,7.74
2019-02-19T21:13:44.423Z,7.64
2019-02-19T21:16:26.267Z,7.75
2019-02-19T21:19:41.799Z,7.69
2019-02-19T21:22:28.028Z,7.69
2019-02-19T21:25:05.231Z,7.75
2019-02-19T21:27:44.597Z,7.59
2019-02-19T21:30:24.120Z,7.73
2019-02-19T21:32:59.936Z,7.74
2019-02-19T21:35:34.950Z,7.75
2019-02-19T21:38:09.938Z,7.76
2019-02-19T21:40:44.908Z,7.68
2019-02-19T21:43:21.177Z,7.57
2019-02-19T21:45:56.921Z,7.72
2019-02-19T21:48:31.845Z,7.78
2019-02-19T21:51:07.656Z,7.61
2019-02-19T21:53:42.664Z,7.60
2019-02-19T21:56:17.661Z,7.60
2019-02-19T21:58:53.505Z,7.58
2019-02-19T22:01:29.310Z,7.60
2019-02-19T22:04:04.778Z,7.58
2019-02-19T22:06:39.978Z,7.72
2019-02-19T22:09:14.952Z,7.58
2019-02-19T22:11:51.046Z,7.65
2019-02-19T22:15:01.978Z,7.60
2019-02-19T22:17:37.984Z,7.59
2019-02-19T22:20:32.474Z,7.57
2019-02-19T22:23:08.732Z,7.51
2019-02-19T22:25:43.658Z,7.63
2019-02-19T22:28:22.951Z,7.65
2019-02-19T22:30:57.996Z,7.68
2019-02-19T22:33:34.319Z,7.61
2019-02-19T22:36:14.061Z,7.54
2019-02-19T22:38:49.900Z,7.36
2019-02-19T22:41:24.782Z,7.45
2019-02-19T22:43:59.688Z,7.42
2019-02-19T22:46:35.056Z,7.47
2019-02-19T22:49:10.027Z,7.46
2019-02-19T22:51:44.920Z,7.55
2019-02-19T22:54:47.949Z,7.61
2019-02-19T22:57:22.982Z,7.56
2019-02-19T22:59:57.910Z,7.54
2019-02-19T23:02:33.387Z,7.51
2019-02-19T23:05:08.798Z,7.39
2019-02-19T23:07:44.588Z,7.37
2019-02-19T23:10:19.548Z,7.43
2019-02-19T23:12:54.598Z,7.38
2019-02-19T23:15:29.542Z,7.38
2019-02-19T23:18:05.256Z,7.42
2019-02-19T23:20:40.146Z,7.32
2019-02-19T23:23:15.921Z,7.37
2019-02-19T23:25:52.548Z,7.50
2019-02-19T23:28:44.006Z,7.51
2019-02-19T23:31:18.968Z,7.45
2019-02-19T23:33:53.875Z,7.51
2019-02-19T23:37:01.612Z,7.50
2019-02-19T23:39:43.403Z,7.48
2019-02-19T23:42:14.847Z,7.43
2019-02-19T23:44:50.608Z,7.51
2019-02-19T23:47:26.362Z,7.46
2019-02-19T23:50:01.246Z,7.47
2019-02-19T23:52:36.206Z,7.43
2019-02-19T23:55:11.016Z,7.36
2019-02-19T23:57:46.898Z,7.27
